createdAt,value
2018-08-23T00:00:36.644Z,4.50
2018-08-23T00:03:12.423Z,4.27
2018-08-23T00:05:44.689Z,4.43
2018-08-23T00:08:12.461Z,4.77
2018-08-23T00:10:40.185Z,3.90
2018-08-23T00:13:07.883Z,4.57
2018-08-23T00:15:35.611Z,4.50
2018-08-23T00:18:03.340Z,4.20
2018-08-23T00:20:31.265Z,4.90
2018-08-23T00:22:59.129Z,5.00
2018-08-23T00:25:26.911Z,4.97
2018-08-23T00:27:54.704Z,5.00
2018-08-23T00:30:26.647Z,5.40
2018-08-23T00:32:54.424Z,4.43
2018-08-23T00:35:22.211Z,5.13
2018-08-23T00:37:50.010Z,5.20
2018-08-23T00:40:17.932Z,4.73
2018-08-23T00:43:16.701Z,4.60
2018-08-23T00:45:44.477Z,4.97
2018-08-23T00:48:15.511Z,5.00
2018-08-23T00:50:46.180Z,5.57
2018-08-23T00:53:14.347Z,5.47
2018-08-23T00:55:42.120Z,5.43
2018-08-23T00:58:10.198Z,5.40
2018-08-23T01:00:37.980Z,4.47
2018-08-23T01:03:05.791Z,5.63
2018-08-23T01:05:34.414Z,5.63
2018-08-23T01:08:02.285Z,5.57
2018-08-23T01:10:30.069Z,5.27
2018-08-23T01:13:00.475Z,6.00
2018-08-23T01:15:28.973Z,5.17
2018-08-23T01:18:02.665Z,5.30
2018-08-23T01:20:30.481Z,5.40
2018-08-23T01:22:59.557Z,5.00
2018-08-23T01:25:30.145Z,5.10
2018-08-23T01:27:57.959Z,4.80
2018-08-23T01:30:25.749Z,5.33
2018-08-23T01:32:53.509Z,5.30
2018-08-23T01:35:21.327Z,4.87
2018-08-23T01:37:49.067Z,5.00
2018-08-23T01:40:16.870Z,5.67
2018-08-23T01:42:44.597Z,5.00
2018-08-23T01:45:12.407Z,5.00
2018-08-23T01:47:45.679Z,5.80
2018-08-23T01:50:14.189Z,6.17
2018-08-23T01:52:47.939Z,7.23
2018-08-23T01:55:16.401Z,6.17
2018-08-23T01:57:44.477Z,7.03
2018-08-23T02:00:13.157Z,7.00
2018-08-23T02:02:41.053Z,6.10
2018-08-23T02:05:08.836Z,7.03
2018-08-23T02:07:36.771Z,6.90
2018-08-23T02:10:04.730Z,7.00
2018-08-23T02:12:32.521Z,7.50
2018-08-23T02:15:01.077Z,7.53
2018-08-23T02:17:31.295Z,7.30
2018-08-23T02:19:59.091Z,7.13
2018-08-23T02:22:26.901Z,7.07
2018-08-23T02:24:54.639Z,7.23
2018-08-23T02:27:22.425Z,8.20
2018-08-23T02:29:50.155Z,8.20
2018-08-23T02:32:17.923Z,8.70
2018-08-23T02:34:46.710Z,9.77
2018-08-23T02:37:15.696Z,10.00
2018-08-23T02:39:44.054Z,9.57
2018-08-23T02:42:13.664Z,10.37
2018-08-23T02:44:42.174Z,10.40
2018-08-23T02:47:09.974Z,11.03
2018-08-23T02:49:37.798Z,11.27
2018-08-23T02:52:05.602Z,11.50
2018-08-23T02:54:33.352Z,9.77
2018-08-23T02:57:01.671Z,9.70
2018-08-23T02:59:30.294Z,11.10
2018-08-23T03:01:58.070Z,12.40
2018-08-23T03:04:26.849Z,11.97
2018-08-23T03:06:55.811Z,11.93
2018-08-23T03:09:25.893Z,12.80
2018-08-23T03:11:54.994Z,12.30
2018-08-23T03:14:23.721Z,12.60
2018-08-23T03:16:54.002Z,13.80
2018-08-23T03:19:21.785Z,13.10
2018-08-23T03:21:55.130Z,13.80
2018-08-23T03:24:22.866Z,13.23
2018-08-23T03:26:50.592Z,13.80
2018-08-23T03:29:18.303Z,13.23
2018-08-23T03:31:46.011Z,13.13
2018-08-23T03:34:13.742Z,14.33
2018-08-23T03:36:41.474Z,14.23
2018-08-23T03:39:09.650Z,16.40
2018-08-23T03:41:37.514Z,16.87
2018-08-23T03:44:09.717Z,16.63
2018-08-23T03:46:44.512Z,16.80
2018-08-23T03:49:12.224Z,15.77
2018-08-23T03:51:40.038Z,16.47
2018-08-23T03:54:07.784Z,16.50
2018-08-23T03:56:35.570Z,16.00
2018-08-23T03:59:03.320Z,17.23
2018-08-23T04:01:31.053Z,17.23
2018-08-23T04:03:58.870Z,17.80
2018-08-23T04:06:30.692Z,17.03
2018-08-23T04:08:58.395Z,16.50
2018-08-23T04:11:26.178Z,16.87
2018-08-23T04:13:53.916Z,17.20
2018-08-23T04:16:25.597Z,18.13
2018-08-23T04:18:53.473Z,17.03
2018-08-23T04:21:21.225Z,17.67
2018-08-23T04:23:48.954Z,17.53
2018-08-23T04:26:16.936Z,16.83
2018-08-23T04:28:44.754Z,17.30
2018-08-23T04:31:12.506Z,18.30
2018-08-23T04:33:40.239Z,17.57
2018-08-23T04:36:13.056Z,17.90
2018-08-23T04:38:45.136Z,19.43
2018-08-23T04:41:13.089Z,19.47
2018-08-23T04:43:41.031Z,18.67
2018-08-23T04:46:14.090Z,21.00
2018-08-23T04:48:41.832Z,21.37
2018-08-23T04:51:09.628Z,22.87
2018-08-23T04:53:37.430Z,21.77
2018-08-23T04:56:05.276Z,23.33
2018-08-23T04:58:33.056Z,22.13
2018-08-23T05:01:00.836Z,25.80
2018-08-23T05:03:28.566Z,26.10
2018-08-23T05:05:56.346Z,24.47
2018-08-23T05:08:25.147Z,26.47
2018-08-23T05:10:52.880Z,26.67
2018-08-23T05:13:20.594Z,26.70
2018-08-23T05:15:48.356Z,26.30
2018-08-23T05:18:16.122Z,27.63
2018-08-23T05:20:43.873Z,27.87
2018-08-23T05:23:11.622Z,27.33
2018-08-23T05:25:39.312Z,26.80
2018-08-23T05:28:13.084Z,26.47
2018-08-23T05:30:42.011Z,26.23
2018-08-23T05:33:15.968Z,25.67
2018-08-23T05:35:43.734Z,26.20
2018-08-23T05:38:12.077Z,27.13
2018-08-23T05:40:46.464Z,26.03
2018-08-23T05:43:14.949Z,26.03
2018-08-23T05:45:48.882Z,25.07
2018-08-23T05:48:23.492Z,26.10
2018-08-23T05:50:51.704Z,24.87
2018-08-23T05:53:19.894Z,24.37
2018-08-23T05:55:50.710Z,24.20
2018-08-23T05:58:21.188Z,23.40
2018-08-23T06:00:49.000Z,21.73
2018-08-23T06:03:16.770Z,21.60
2018-08-23T06:05:45.698Z,22.40
2018-08-23T06:08:13.545Z,21.63
2018-08-23T06:10:41.495Z,21.07
2018-08-23T06:13:09.586Z,20.83
2018-08-23T06:15:45.661Z,21.30
2018-08-23T06:18:14.598Z,20.67
2018-08-23T06:20:42.400Z,20.70
2018-08-23T06:23:10.235Z,21.03
2018-08-23T06:25:38.102Z,19.97
2018-08-23T06:28:11.376Z,20.60
2018-08-23T06:30:39.184Z,21.17
2018-08-23T06:33:07.027Z,20.57
2018-08-23T06:35:38.362Z,21.80
2018-08-23T06:38:07.666Z,20.67
2018-08-23T06:40:35.462Z,21.30
2018-08-23T06:43:04.082Z,19.63
2018-08-23T06:45:31.846Z,19.37
2018-08-23T06:48:01.253Z,19.33
2018-08-23T06:50:28.977Z,19.33
2018-08-23T06:52:56.764Z,18.80
2018-08-23T06:55:29.940Z,20.07
2018-08-23T06:58:01.656Z,19.93
2018-08-23T07:00:29.534Z,19.67
2018-08-23T07:02:57.466Z,18.67
2018-08-23T07:05:25.222Z,17.70
2018-08-23T07:07:52.913Z,17.43
2018-08-23T07:10:20.610Z,17.07
2018-08-23T07:12:48.640Z,17.70
2018-08-23T07:15:16.342Z,16.37
2018-08-23T07:17:44.132Z,16.40
2018-08-23T07:20:12.978Z,16.57
2018-08-23T07:22:40.718Z,17.60
2018-08-23T07:25:11.056Z,16.50
2018-08-23T07:27:42.067Z,16.27
2018-08-23T07:30:13.166Z,16.77
2018-08-23T07:32:41.272Z,16.20
2018-08-23T07:35:10.266Z,15.77
2018-08-23T07:37:39.291Z,15.43
2018-08-23T07:40:12.790Z,15.43
2018-08-23T07:42:41.679Z,16.50
2018-08-23T07:45:09.858Z,15.63
2018-08-23T07:47:41.836Z,15.83
2018-08-23T07:50:09.601Z,15.87
2018-08-23T07:52:38.086Z,16.20
2018-08-23T07:55:06.340Z,16.73
2018-08-23T07:57:35.191Z,16.80
2018-08-23T08:00:08.516Z,16.27
2018-08-23T08:02:36.240Z,17.03
2018-08-23T08:05:04.536Z,16.83
2018-08-23T08:07:32.276Z,17.30
2018-08-23T08:10:00.702Z,17.30
2018-08-23T08:12:38.413Z,16.73
2018-08-23T08:15:08.092Z,15.67
2018-08-23T08:17:35.806Z,17.50
2018-08-23T08:20:04.129Z,17.37
2018-08-23T08:22:31.834Z,17.90
2018-08-23T08:25:03.409Z,16.57
2018-08-23T08:27:31.100Z,16.53
2018-08-23T08:29:58.830Z,17.17
2018-08-23T08:32:26.529Z,17.20
2018-08-23T08:34:55.900Z,17.23
2018-08-23T08:37:23.716Z,15.93
2018-08-23T08:39:51.435Z,16.33
2018-08-23T08:42:23.648Z,16.57
2018-08-23T08:44:51.378Z,16.80
2018-08-23T08:47:19.091Z,17.67
2018-08-23T08:49:46.806Z,18.17
2018-08-23T08:52:14.518Z,17.60
2018-08-23T08:54:42.230Z,16.80
2018-08-23T08:57:10.058Z,16.60
2018-08-23T08:59:37.821Z,16.63
2018-08-23T09:02:05.598Z,15.13
2018-08-23T09:04:34.295Z,15.77
2018-08-23T09:07:02.020Z,14.13
2018-08-23T09:09:31.995Z,15.47
2018-08-23T09:12:00.603Z,14.60
2018-08-23T09:14:28.316Z,14.93
2018-08-23T09:16:56.063Z,14.13
2018-08-23T09:19:29.449Z,14.70
2018-08-23T09:21:59.343Z,14.70
2018-08-23T09:24:27.485Z,14.97
2018-08-23T09:26:55.269Z,14.60
2018-08-23T09:29:29.205Z,14.83
2018-08-23T09:32:01.578Z,15.93
2018-08-23T09:34:29.286Z,18.33
2018-08-23T09:36:57.054Z,17.87
2018-08-23T09:39:24.743Z,18.73
2018-08-23T09:41:52.509Z,19.83
2018-08-23T09:44:20.200Z,19.53
2018-08-23T09:46:52.865Z,19.60
2018-08-23T09:49:21.391Z,19.90
2018-08-23T09:51:49.121Z,20.93
2018-08-23T09:54:21.375Z,23.00
2018-08-23T09:56:49.086Z,22.37
2018-08-23T09:59:16.830Z,21.80
2018-08-23T10:01:50.152Z,21.70
2018-08-23T10:04:23.506Z,19.63
2018-08-23T10:07:00.467Z,18.40
2018-08-23T10:09:29.654Z,16.63
2018-08-23T10:12:03.267Z,17.40
2018-08-23T10:14:36.672Z,15.87
2018-08-23T10:17:09.941Z,14.07
2018-08-23T10:19:43.238Z,12.57
2018-08-23T10:22:16.403Z,12.60
2018-08-23T10:24:44.115Z,12.40
2018-08-23T10:27:11.815Z,13.10
2018-08-23T10:29:39.560Z,13.20
2018-08-23T10:32:07.339Z,15.50
2018-08-23T10:34:35.028Z,14.67
2018-08-23T10:37:02.772Z,15.10
2018-08-23T10:39:30.522Z,15.57
2018-08-23T10:41:58.250Z,15.67
2018-08-23T10:44:26.048Z,15.27
2018-08-23T10:46:57.319Z,13.50
2018-08-23T10:49:25.929Z,14.33
2018-08-23T10:51:53.647Z,13.67
2018-08-23T10:54:21.366Z,12.83
2018-08-23T10:56:49.234Z,12.07
2018-08-23T10:59:17.009Z,12.33
2018-08-23T11:01:44.702Z,11.87
2018-08-23T11:04:12.436Z,10.90
2018-08-23T11:06:45.656Z,11.30
2018-08-23T11:11:22.804Z,11.53
2018-08-23T11:13:50.526Z,11.37
2018-08-23T11:16:23.851Z,10.77
2018-08-23T11:18:57.124Z,9.90
2018-08-23T11:21:24.827Z,10.57
2018-08-23T11:23:52.572Z,11.10
2018-08-23T11:26:21.766Z,10.23
2018-08-23T11:28:49.921Z,11.50
2018-08-23T11:31:23.160Z,10.30
2018-08-23T11:33:50.968Z,10.13
2018-08-23T11:36:18.722Z,8.90
2018-08-23T11:38:46.487Z,8.50
2018-08-23T11:41:14.234Z,8.13
2018-08-23T11:43:42.002Z,8.37
2018-08-23T11:46:13.980Z,6.87
2018-08-23T11:48:42.607Z,8.03
2018-08-23T11:51:10.668Z,8.50
2018-08-23T11:53:38.597Z,7.83
2018-08-23T11:56:06.138Z,8.13
2018-08-23T11:58:33.869Z,7.13
2018-08-23T12:01:07.212Z,7.80
2018-08-23T12:03:34.918Z,7.27
2018-08-23T12:06:02.740Z,7.67
2018-08-23T12:08:30.443Z,6.90
2018-08-23T12:10:58.172Z,7.37
2018-08-23T12:13:25.876Z,7.10
2018-08-23T12:15:53.582Z,6.53
2018-08-23T12:18:21.298Z,5.83
2018-08-23T12:20:49.002Z,5.23
2018-08-23T12:23:16.725Z,5.97
2018-08-23T12:25:44.532Z,5.10
2018-08-23T12:28:17.803Z,5.00
2018-08-23T12:30:45.544Z,4.63
2018-08-23T12:33:13.254Z,4.70
2018-08-23T12:35:40.964Z,4.97
2018-08-23T12:38:16.712Z,4.50
2018-08-23T12:40:49.974Z,4.60
2018-08-23T12:43:19.641Z,4.03
2018-08-23T12:45:47.832Z,3.67
2018-08-23T12:48:15.561Z,4.03
2018-08-23T12:50:43.927Z,3.80
2018-08-23T12:53:11.697Z,4.50
2018-08-23T12:55:39.431Z,3.90
2018-08-23T12:58:09.440Z,3.43
2018-08-23T13:00:37.556Z,3.40
2018-08-23T13:03:05.352Z,3.20
2018-08-23T13:05:33.206Z,3.23
2018-08-23T13:08:00.920Z,2.90
2018-08-23T13:10:28.634Z,3.13
2018-08-23T13:12:56.339Z,3.07
2018-08-23T13:15:24.067Z,3.30
2018-08-23T13:17:51.823Z,3.10
2018-08-23T13:20:19.537Z,3.50
2018-08-23T13:22:47.269Z,2.93
2018-08-23T13:25:15.117Z,2.93
2018-08-23T13:27:43.211Z,2.77
2018-08-23T13:30:11.434Z,2.70
2018-08-23T13:32:39.212Z,2.60
2018-08-23T13:35:06.953Z,2.40
2018-08-23T13:37:34.691Z,2.30
2018-08-23T13:40:02.487Z,2.07
2018-08-23T13:42:30.225Z,2.20
2018-08-23T13:44:57.973Z,1.90
2018-08-23T13:47:25.730Z,1.60
2018-08-23T13:49:53.473Z,1.80
2018-08-23T13:52:21.206Z,2.00
2018-08-23T13:54:48.934Z,1.70
2018-08-23T13:57:16.645Z,2.10
2018-08-23T13:59:44.400Z,1.80
2018-08-23T14:02:12.203Z,1.90
2018-08-23T14:04:39.931Z,1.80
2018-08-23T14:07:07.738Z,1.70
2018-08-23T14:09:35.515Z,1.60
2018-08-23T14:12:03.253Z,1.50
2018-08-23T14:14:30.961Z,1.50
2018-08-23T14:16:59.204Z,1.83
2018-08-23T14:19:27.062Z,1.50
2018-08-23T14:21:54.723Z,1.70
2018-08-23T14:24:22.473Z,1.40
2018-08-23T14:26:50.208Z,1.60
2018-08-23T14:29:17.915Z,1.63
2018-08-23T14:31:45.655Z,1.77
2018-08-23T14:34:13.363Z,1.83
2018-08-23T14:36:41.105Z,1.80
2018-08-23T14:39:10.203Z,1.97
2018-08-23T14:41:38.473Z,1.83
2018-08-23T14:44:06.582Z,1.60
2018-08-23T14:46:39.981Z,1.70
2018-08-23T14:49:07.693Z,1.80
2018-08-23T14:51:35.417Z,1.67
2018-08-23T14:54:07.692Z,1.30
2018-08-23T14:56:40.974Z,1.50
2018-08-23T14:59:08.729Z,1.50
2018-08-23T15:01:36.479Z,1.43
2018-08-23T15:04:04.210Z,1.60
2018-08-23T15:06:31.972Z,1.50
2018-08-23T15:08:59.735Z,1.30
2018-08-23T15:11:27.462Z,1.47
2018-08-23T15:13:55.238Z,1.10
2018-08-23T15:16:23.032Z,1.20
2018-08-23T15:18:50.721Z,1.33
2018-08-23T15:21:18.458Z,1.20
2018-08-23T15:23:46.174Z,1.30
2018-08-23T15:26:13.929Z,1.63
2018-08-23T15:28:41.616Z,1.13
2018-08-23T15:31:09.373Z,1.20
2018-08-23T15:33:37.132Z,1.40
2018-08-23T15:36:05.096Z,1.20
2018-08-23T15:38:32.871Z,1.17
2018-08-23T15:41:00.667Z,1.43
2018-08-23T15:43:28.329Z,1.20
2018-08-23T15:45:56.073Z,1.40
2018-08-23T15:48:23.813Z,1.20
2018-08-23T15:50:51.757Z,1.10
2018-08-23T15:53:19.468Z,1.50
2018-08-23T15:55:47.241Z,1.60
2018-08-23T15:58:14.993Z,1.10
2018-08-23T16:00:42.752Z,1.40
2018-08-23T16:03:10.510Z,1.20
2018-08-23T16:05:38.714Z,1.77
2018-08-23T16:08:06.563Z,1.30
2018-08-23T16:10:34.296Z,1.30
2018-08-23T16:13:02.059Z,1.70
2018-08-23T16:15:30.217Z,1.33
2018-08-23T16:18:03.367Z,1.30
2018-08-23T16:20:36.616Z,1.13
2018-08-23T16:23:04.389Z,1.27
2018-08-23T16:25:37.652Z,1.20
2018-08-23T16:28:05.697Z,1.20
2018-08-23T16:30:33.471Z,1.03
2018-08-23T16:33:01.229Z,1.17
2018-08-23T16:35:28.985Z,0.90
2018-08-23T16:37:56.699Z,1.10
2018-08-23T16:40:31.003Z,1.07
2018-08-23T16:42:59.367Z,1.13
2018-08-23T16:45:27.196Z,1.10
2018-08-23T16:47:54.974Z,1.00
2018-08-23T16:50:22.859Z,1.20
2018-08-23T16:52:50.655Z,1.00
2018-08-23T16:55:18.759Z,0.87
2018-08-23T16:57:46.552Z,1.10
2018-08-23T17:00:14.300Z,1.17
2018-08-23T17:02:42.060Z,1.10
2018-08-23T17:05:09.825Z,1.20
2018-08-23T17:07:37.563Z,0.90
2018-08-23T17:10:05.347Z,1.23
2018-08-23T17:12:33.123Z,1.10
2018-08-23T17:15:00.858Z,1.07
2018-08-23T17:17:34.032Z,0.90
2018-08-23T17:20:01.823Z,1.10
2018-08-23T17:22:29.962Z,0.90
2018-08-23T17:24:57.728Z,1.07
2018-08-23T17:27:25.809Z,0.90
2018-08-23T17:29:53.537Z,0.80
2018-08-23T17:32:21.263Z,1.00
2018-08-23T17:34:49.041Z,0.90
2018-08-23T17:37:16.748Z,0.90
2018-08-23T17:39:44.586Z,0.90
2018-08-23T17:42:12.442Z,1.10
2018-08-23T17:44:40.866Z,1.17
2018-08-23T17:47:13.364Z,0.90
2018-08-23T17:49:41.128Z,1.20
2018-08-23T17:52:08.928Z,0.97
2018-08-23T17:54:36.654Z,0.90
2018-08-23T17:57:05.467Z,1.00
2018-08-23T17:59:33.276Z,0.87
2018-08-23T18:02:22.173Z,0.93
2018-08-23T18:05:38.455Z,1.00
2018-08-23T18:08:09.651Z,1.13
2018-08-23T18:10:37.450Z,1.07
2018-08-23T18:13:05.327Z,0.87
2018-08-23T18:15:38.557Z,1.00
2018-08-23T18:18:06.474Z,1.00
2018-08-23T18:20:34.323Z,0.90
2018-08-23T18:23:02.089Z,1.00
2018-08-23T18:25:30.169Z,1.00
2018-08-23T18:27:59.935Z,1.20
2018-08-23T18:30:27.732Z,1.00
2018-08-23T18:32:55.592Z,0.90
2018-08-23T18:35:23.456Z,1.00
2018-08-23T18:37:57.286Z,1.00
2018-08-23T18:40:25.111Z,1.07
2018-08-23T18:42:52.874Z,1.33
2018-08-23T18:45:20.661Z,0.97
2018-08-23T18:47:52.300Z,1.30
2018-08-23T18:50:20.036Z,1.20
2018-08-23T18:52:47.809Z,1.10
2018-08-23T18:55:15.660Z,1.30
2018-08-23T18:57:43.615Z,1.00
2018-08-23T19:00:11.536Z,1.17
2018-08-23T19:02:39.405Z,1.30
2018-08-23T19:05:07.338Z,1.50
2018-08-23T19:07:40.049Z,1.10
2018-08-23T19:10:08.031Z,0.90
2018-08-23T19:12:35.889Z,0.93
2018-08-23T19:15:03.840Z,1.10
2018-08-23T19:17:34.195Z,0.90
2018-08-23T19:20:02.027Z,1.20
2018-08-23T19:22:30.257Z,1.00
2018-08-23T19:24:58.150Z,1.10
2018-08-23T19:27:25.970Z,1.37
2018-08-23T19:29:53.904Z,1.20
2018-08-23T19:32:21.824Z,1.10
2018-08-23T19:34:49.682Z,1.00
2018-08-23T19:37:17.507Z,1.00
2018-08-23T19:39:45.395Z,1.20
2018-08-23T19:42:13.215Z,1.10
2018-08-23T19:44:46.589Z,0.90
2018-08-23T19:47:20.085Z,0.93
2018-08-23T19:49:53.470Z,1.10
2018-08-23T19:52:21.813Z,0.80
2018-08-23T19:54:50.131Z,0.90
2018-08-23T19:57:18.062Z,0.90
2018-08-23T19:59:46.030Z,1.27
2018-08-23T20:02:14.096Z,0.90
2018-08-23T20:04:42.688Z,0.97
2018-08-23T20:07:11.129Z,1.10
2018-08-23T20:09:39.309Z,1.20
2018-08-23T20:12:07.664Z,1.00
2018-08-23T20:14:35.670Z,1.10
2018-08-23T20:17:03.723Z,1.03
2018-08-23T20:19:31.677Z,1.10
2018-08-23T20:21:59.778Z,1.00
2018-08-23T20:24:28.270Z,1.07
2018-08-23T20:26:56.850Z,1.17
2018-08-23T20:29:24.838Z,1.10
2018-08-23T20:31:53.274Z,1.20
2018-08-23T20:34:21.145Z,1.10
2018-08-23T20:36:49.074Z,1.10
2018-08-23T20:39:17.039Z,1.10
2018-08-23T20:41:45.851Z,1.40
2018-08-23T20:44:13.730Z,1.30
2018-08-23T20:46:41.610Z,1.20
2018-08-23T20:49:10.103Z,1.20
2018-08-23T20:51:38.535Z,1.50
2018-08-23T20:54:07.217Z,1.33
2018-08-23T20:56:35.127Z,1.20
2018-08-23T20:59:03.005Z,1.40
2018-08-23T21:01:31.002Z,1.20
2018-08-23T21:03:58.898Z,1.30
2018-08-23T21:06:26.783Z,1.20
2018-08-23T21:08:54.735Z,1.43
2018-08-23T21:11:22.683Z,1.20
2018-08-23T21:13:50.621Z,1.50
2018-08-23T21:16:18.462Z,1.30
2018-08-23T21:18:46.226Z,1.37
2018-08-23T21:21:14.008Z,1.33
2018-08-23T21:23:42.009Z,1.40
2018-08-23T21:26:09.871Z,1.60
2018-08-23T21:28:37.800Z,1.50
2018-08-23T21:31:05.949Z,1.40
2018-08-23T21:33:33.871Z,1.50
2018-08-23T21:36:01.714Z,1.60
2018-08-23T21:38:29.548Z,1.90
2018-08-23T21:40:57.380Z,1.50
2018-08-23T21:43:25.200Z,1.40
2018-08-23T21:45:53.049Z,1.63
2018-08-23T21:48:20.892Z,1.60
2018-08-23T21:50:48.740Z,1.67
2018-08-23T21:53:16.540Z,1.80
2018-08-23T21:55:44.398Z,1.90
2018-08-23T21:58:12.232Z,1.50
2018-08-23T22:01:13.973Z,1.57
2018-08-23T22:03:41.777Z,1.70
2018-08-23T22:06:09.530Z,1.63
2018-08-23T22:08:38.472Z,1.53
2018-08-23T22:11:06.266Z,1.87
2018-08-23T22:13:34.052Z,1.60
2018-08-23T22:16:01.934Z,1.57
2018-08-23T22:18:29.779Z,1.50
2018-08-23T22:20:57.545Z,1.43
2018-08-23T22:23:25.290Z,1.37
2018-08-23T22:25:53.084Z,1.30
2018-08-23T22:28:20.890Z,1.50
2018-08-23T22:30:48.740Z,1.37
2018-08-23T22:33:17.413Z,1.53
2018-08-23T22:35:45.218Z,1.40
2018-08-23T22:38:12.981Z,1.33
2018-08-23T22:40:40.812Z,1.43
2018-08-23T22:43:08.779Z,1.30
2018-08-23T22:45:36.650Z,1.30
2018-08-23T22:48:04.578Z,1.50
2018-08-23T22:50:32.366Z,1.47
2018-08-23T22:53:00.180Z,1.40
2018-08-23T22:55:27.934Z,1.10
2018-08-23T22:57:55.756Z,1.27
2018-08-23T23:00:29.152Z,1.50
2018-08-23T23:02:56.929Z,1.33
2018-08-23T23:05:24.838Z,1.20
2018-08-23T23:07:52.683Z,1.47
2018-08-23T23:10:20.420Z,1.50
2018-08-23T23:12:48.196Z,1.37
2018-08-23T23:15:21.754Z,1.30
2018-08-23T23:17:49.590Z,1.50
2018-08-23T23:20:17.501Z,1.73
2018-08-23T23:22:45.419Z,1.37
2018-08-23T23:25:13.220Z,1.40
2018-08-23T23:27:41.043Z,1.30
2018-08-23T23:30:08.862Z,1.80
2018-08-23T23:32:36.683Z,1.60
2018-08-23T23:35:04.532Z,1.90
2018-08-23T23:37:32.296Z,1.40
2018-08-23T23:40:00.112Z,2.07
2018-08-23T23:42:27.895Z,2.27
2018-08-23T23:44:55.670Z,2.80
2018-08-23T23:47:23.420Z,3.23
2018-08-23T23:49:51.228Z,2.90
2018-08-23T23:52:19.035Z,2.57
2018-08-23T23:54:46.885Z,2.47
2018-08-23T23:57:18.300Z,1.90
2018-08-23T23:59:46.142Z,2.00
